createdAt,value
2019-02-17T00:02:08.049Z,7.30
2019-02-17T00:04:39.330Z,7.30
2019-02-17T00:07:09.821Z,7.30
2019-02-17T00:09:40.143Z,7.30
2019-02-17T00:12:11.007Z,7.30
2019-02-17T00:14:41.312Z,7.30
2019-02-17T00:17:11.720Z,7.30
2019-02-17T00:19:42.063Z,7.20
2019-02-17T00:22:12.365Z,7.30
2019-02-17T00:24:42.886Z,7.20
2019-02-17T00:27:13.307Z,7.20
2019-02-17T00:29:43.675Z,7.20
2019-02-17T00:32:14.159Z,7.10
2019-02-17T00:34:44.542Z,7.10
2019-02-17T00:37:14.967Z,7.00
2019-02-17T00:39:45.591Z,7.00
2019-02-17T00:42:16.030Z,7.00
2019-02-17T00:44:46.491Z,7.00
2019-02-17T00:47:18.033Z,7.00
2019-02-17T00:49:50.422Z,6.90
2019-02-17T00:52:21.048Z,6.90
2019-02-17T00:54:51.383Z,6.90
2019-02-17T00:57:22.103Z,6.90
2019-02-17T00:59:52.530Z,7.00
2019-02-17T01:02:25.174Z,6.90
2019-02-17T01:04:55.531Z,6.90
2019-02-17T01:07:28.639Z,6.90
2019-02-17T01:09:59.060Z,6.80
2019-02-17T01:12:29.679Z,6.90
2019-02-17T01:14:59.993Z,6.80
2019-02-17T01:17:30.331Z,6.80
2019-02-17T01:20:00.667Z,6.90
2019-02-17T01:22:31.177Z,6.80
2019-02-17T01:25:01.571Z,6.80
2019-02-17T01:27:32.192Z,6.80
2019-02-17T01:30:02.562Z,6.80
2019-02-17T01:32:33.982Z,6.80
2019-02-17T01:35:04.434Z,6.80
2019-02-17T01:37:34.747Z,6.80
2019-02-17T01:40:05.766Z,6.70
2019-02-17T01:42:36.291Z,6.70
2019-02-17T01:45:07.642Z,6.80
2019-02-17T01:47:38.040Z,6.80
2019-02-17T01:50:08.783Z,6.80
2019-02-17T01:52:39.094Z,6.60
2019-02-17T01:55:09.547Z,6.70
2019-02-17T01:57:41.795Z,6.80
2019-02-17T02:00:12.991Z,6.80
2019-02-17T02:02:43.315Z,6.80
2019-02-17T02:05:13.777Z,6.90
2019-02-17T02:07:44.627Z,6.90
2019-02-17T02:10:16.065Z,6.90
2019-02-17T02:12:47.591Z,6.90
2019-02-17T02:15:17.983Z,7.00
2019-02-17T02:17:48.468Z,7.00
2019-02-17T02:20:18.835Z,7.00
2019-02-17T02:22:49.346Z,7.00
2019-02-17T02:25:19.675Z,7.00
2019-02-17T02:27:52.651Z,7.00
2019-02-17T02:30:23.005Z,6.90
2019-02-17T02:32:53.495Z,7.00
2019-02-17T02:35:23.859Z,7.00
2019-02-17T02:37:54.239Z,7.00
2019-02-17T02:40:24.695Z,7.00
2019-02-17T02:42:56.295Z,6.90
2019-02-17T02:45:26.650Z,6.90
2019-02-17T02:47:57.178Z,6.90
2019-02-17T02:50:27.526Z,6.90
2019-02-17T02:52:59.629Z,6.90
2019-02-17T02:55:31.111Z,6.80
2019-02-17T02:58:01.638Z,6.80
2019-02-17T03:00:34.762Z,6.80
2019-02-17T03:03:05.226Z,6.80
2019-02-17T03:05:37.329Z,6.80
2019-02-17T03:08:08.014Z,6.80
2019-02-17T03:10:38.355Z,6.80
2019-02-17T03:13:09.122Z,6.80
2019-02-17T03:15:39.475Z,6.90
2019-02-17T03:18:10.009Z,6.90
2019-02-17T03:20:40.308Z,6.90
2019-02-17T03:23:10.593Z,6.90
2019-02-17T03:25:41.124Z,6.90
2019-02-17T03:28:11.723Z,6.90
2019-02-17T03:30:42.084Z,6.90
2019-02-17T03:33:12.441Z,6.90
2019-02-17T03:35:42.737Z,6.90
2019-02-17T03:38:13.979Z,6.80
2019-02-17T03:40:44.340Z,6.80
2019-02-17T03:43:15.183Z,6.80
2019-02-17T03:45:45.601Z,6.90
2019-02-17T03:48:15.982Z,6.90
2019-02-17T03:50:46.379Z,6.80
2019-02-17T03:53:16.722Z,6.80
2019-02-17T03:55:47.491Z,6.80
2019-02-17T03:58:17.982Z,6.80
2019-02-17T04:00:48.237Z,6.80
2019-02-17T04:03:18.581Z,6.70
2019-02-17T04:05:49.094Z,6.70
2019-02-17T04:08:19.439Z,6.30
2019-02-17T04:10:49.779Z,6.70
2019-02-17T04:13:20.586Z,6.80
2019-02-17T04:15:50.903Z,6.80
2019-02-17T04:18:21.410Z,6.70
2019-02-17T04:20:51.755Z,6.80
2019-02-17T04:23:30.928Z,6.70
2019-02-17T04:25:56.439Z,6.50
2019-02-17T04:28:27.091Z,6.60
2019-02-17T04:30:57.403Z,6.50
2019-02-17T04:33:29.519Z,6.40
2019-02-17T04:35:59.853Z,6.40
2019-02-17T04:38:30.340Z,6.50
2019-02-17T04:41:00.649Z,6.50
2019-02-17T04:43:31.301Z,6.50
2019-02-17T04:46:03.954Z,6.50
2019-02-17T04:48:34.404Z,6.40
2019-02-17T04:51:04.791Z,6.40
2019-02-17T04:53:37.496Z,6.50
2019-02-17T04:56:07.834Z,6.50
2019-02-17T04:58:38.636Z,6.50
2019-02-17T05:01:08.992Z,6.60
2019-02-17T05:03:39.604Z,6.50
2019-02-17T05:06:09.949Z,6.60
2019-02-17T05:08:43.258Z,6.60
2019-02-17T05:11:13.550Z,6.50
2019-02-17T05:13:44.228Z,6.60
2019-02-17T05:16:14.631Z,6.60
2019-02-17T05:18:44.932Z,6.60
2019-02-17T05:21:15.331Z,6.70
2019-02-17T05:23:45.622Z,6.60
2019-02-17T05:26:16.126Z,6.70
2019-02-17T05:28:46.656Z,6.70
2019-02-17T05:31:17.069Z,6.70
2019-02-17T05:33:47.520Z,6.70
2019-02-17T05:36:18.072Z,6.60
2019-02-17T05:38:48.440Z,6.60
2019-02-17T05:41:19.863Z,6.60
2019-02-17T05:43:50.291Z,6.60
2019-02-17T05:46:23.391Z,6.60
2019-02-17T05:48:55.375Z,6.60
2019-02-17T05:51:25.639Z,6.50
2019-02-17T05:53:57.583Z,6.50
2019-02-17T05:56:28.108Z,6.50
2019-02-17T05:58:58.619Z,6.50
2019-02-17T06:01:28.910Z,6.50
2019-02-17T06:03:59.363Z,6.40
2019-02-17T06:06:31.588Z,6.40
2019-02-17T06:09:01.855Z,6.20
2019-02-17T06:11:33.300Z,6.20
2019-02-17T06:14:03.915Z,6.10
2019-02-17T06:16:34.328Z,6.00
2019-02-17T06:19:04.704Z,5.90
2019-02-17T06:21:40.692Z,5.90
2019-02-17T06:24:10.995Z,5.80
2019-02-17T06:26:41.692Z,5.80
2019-02-17T06:29:12.123Z,5.70
2019-02-17T06:31:42.735Z,5.70
2019-02-17T06:34:13.063Z,5.70
2019-02-17T06:36:43.547Z,5.60
2019-02-17T06:39:13.995Z,5.60
2019-02-17T06:41:44.542Z,5.50
2019-02-17T06:44:15.109Z,5.50
2019-02-17T06:46:49.335Z,5.40
2019-02-17T06:49:19.763Z,5.40
2019-02-17T06:51:50.175Z,5.30
2019-02-17T06:54:20.459Z,5.40
2019-02-17T06:57:18.863Z,5.40
2019-02-17T06:59:50.908Z,5.40
2019-02-17T07:02:21.449Z,5.70
2019-02-17T07:05:22.747Z,5.50
2019-02-17T07:07:53.263Z,5.50
2019-02-17T07:10:23.595Z,5.60
2019-02-17T07:12:54.111Z,5.60
2019-02-17T07:15:25.437Z,5.50
2019-02-17T07:17:55.746Z,5.10
2019-02-17T07:20:26.147Z,5.50
2019-02-17T07:22:56.471Z,5.50
2019-02-17T07:25:30.008Z,5.50
2019-02-17T07:27:59.131Z,5.50
2019-02-17T07:30:29.766Z,5.50
2019-02-17T07:33:00.154Z,5.60
2019-02-17T07:35:30.467Z,5.50
2019-02-17T07:38:01.143Z,5.70
2019-02-17T07:40:31.452Z,5.60
2019-02-17T07:43:01.999Z,5.70
2019-02-17T07:45:32.542Z,5.80
2019-02-17T07:48:02.961Z,5.70
2019-02-17T07:50:33.360Z,5.70
2019-02-17T07:53:03.658Z,5.80
2019-02-17T07:55:33.950Z,5.80
2019-02-17T07:58:04.421Z,5.90
2019-02-17T08:00:34.950Z,5.90
2019-02-17T08:03:05.339Z,5.90
2019-02-17T08:05:35.619Z,6.00
2019-02-17T08:08:06.139Z,6.00
2019-02-17T08:10:36.483Z,6.00
2019-02-17T08:13:07.035Z,6.00
2019-02-17T08:15:37.599Z,6.10
2019-02-17T08:18:08.056Z,6.10
2019-02-17T08:20:38.343Z,6.20
2019-02-17T08:23:08.943Z,6.20
2019-02-17T08:25:39.252Z,6.10
2019-02-17T08:28:09.651Z,6.20
2019-02-17T08:30:40.446Z,6.20
2019-02-17T08:33:10.682Z,6.30
2019-02-17T08:35:41.123Z,6.40
2019-02-17T08:38:11.435Z,6.40
2019-02-17T08:40:41.874Z,6.40
2019-02-17T08:43:12.282Z,6.40
2019-02-17T08:45:42.687Z,6.50
2019-02-17T08:48:13.227Z,6.50
2019-02-17T08:50:43.563Z,6.40
2019-02-17T08:53:14.044Z,6.50
2019-02-17T08:55:44.267Z,6.50
2019-02-17T08:58:14.719Z,6.40
2019-02-17T09:00:45.372Z,6.40
2019-02-17T09:03:15.734Z,6.50
2019-02-17T09:05:46.575Z,6.40
2019-02-17T09:08:16.953Z,6.20
2019-02-17T09:10:47.299Z,6.20
2019-02-17T09:13:19.343Z,6.30
2019-02-17T09:15:52.483Z,6.30
2019-02-17T09:18:24.001Z,6.40
2019-02-17T09:20:54.564Z,6.50
2019-02-17T09:23:26.456Z,6.40
2019-02-17T09:25:56.814Z,6.50
2019-02-17T09:28:27.163Z,6.50
2019-02-17T09:30:57.647Z,6.60
2019-02-17T09:33:28.204Z,6.60
2019-02-17T09:35:58.558Z,6.70
2019-02-17T09:38:28.979Z,6.80
2019-02-17T09:40:59.268Z,6.80
2019-02-17T09:43:32.198Z,6.70
2019-02-17T09:46:02.687Z,6.90
2019-02-17T09:48:33.170Z,6.90
2019-02-17T09:51:03.470Z,6.90
2019-02-17T09:53:33.895Z,7.00
2019-02-17T09:56:05.305Z,7.20
2019-02-17T09:58:35.772Z,7.20
2019-02-17T10:01:06.330Z,7.30
2019-02-17T10:03:36.718Z,7.20
2019-02-17T10:06:07.143Z,7.40
2019-02-17T10:08:37.546Z,7.60
2019-02-17T10:11:08.073Z,7.60
2019-02-17T10:13:38.579Z,7.70
2019-02-17T10:16:09.181Z,7.70
2019-02-17T10:18:39.592Z,8.00
2019-02-17T10:21:10.336Z,8.60
2019-02-17T10:23:40.791Z,9.10
2019-02-17T10:26:11.361Z,9.00
2019-02-17T10:28:42.518Z,8.80
2019-02-17T10:31:13.247Z,8.70
2019-02-17T10:33:43.731Z,8.60
2019-02-17T10:36:14.263Z,8.40
2019-02-17T10:38:44.598Z,8.30
2019-02-17T10:41:15.135Z,8.20
2019-02-17T10:43:45.507Z,8.40
2019-02-17T10:46:16.255Z,8.30
2019-02-17T10:48:51.775Z,8.20
2019-02-17T10:51:26.591Z,8.10
2019-02-17T10:53:59.083Z,7.90
2019-02-17T10:56:29.661Z,7.70
2019-02-17T10:58:59.983Z,7.50
2019-02-17T11:01:30.464Z,7.40
2019-02-17T11:04:06.163Z,7.20
2019-02-17T11:06:36.727Z,7.00
2019-02-17T11:09:20.306Z,6.60
2019-02-17T11:11:51.151Z,6.70
2019-02-17T11:14:21.555Z,6.70
2019-02-17T11:16:52.374Z,6.70
2019-02-17T11:19:22.771Z,6.70
2019-02-17T11:21:56.010Z,6.60
2019-02-17T11:24:26.456Z,6.60
2019-02-17T11:26:58.920Z,6.60
2019-02-17T11:29:30.221Z,6.50
2019-02-17T11:32:01.319Z,6.50
2019-02-17T11:34:31.703Z,6.40
2019-02-17T11:37:02.119Z,6.40
2019-02-17T11:39:32.496Z,6.20
2019-02-17T11:42:03.117Z,6.00
2019-02-17T11:44:33.450Z,6.00
2019-02-17T11:47:04.130Z,5.90
2019-02-17T11:49:34.478Z,5.90
2019-02-17T11:52:05.236Z,6.00
2019-02-17T11:54:35.573Z,6.00
2019-02-17T11:57:05.949Z,6.20
2019-02-17T11:59:36.485Z,6.30
2019-02-17T12:02:07.127Z,6.50
2019-02-17T12:04:37.519Z,6.60
2019-02-17T12:07:08.062Z,6.60
2019-02-17T12:09:38.385Z,6.70
2019-02-17T12:12:08.738Z,6.60
2019-02-17T12:14:39.133Z,6.50
2019-02-17T12:17:09.769Z,6.40
2019-02-17T12:19:40.239Z,6.20
2019-02-17T12:22:29.995Z,6.10
2019-02-17T12:25:07.187Z,6.10
2019-02-17T12:28:05.677Z,6.10
2019-02-17T12:30:36.827Z,6.00
2019-02-17T12:33:17.765Z,6.10
2019-02-17T12:35:39.344Z,6.10
2019-02-17T12:38:09.733Z,6.40
2019-02-17T12:40:40.177Z,6.60
2019-02-17T12:43:10.502Z,6.70
2019-02-17T12:45:41.103Z,6.80
2019-02-17T12:48:11.514Z,6.70
2019-02-17T12:50:44.450Z,6.60
2019-02-17T12:53:14.741Z,6.70
2019-02-17T12:55:45.211Z,6.70
2019-02-17T12:58:15.526Z,6.50
2019-02-17T13:00:46.144Z,6.40
2019-02-17T13:03:16.531Z,6.40
2019-02-17T13:05:47.020Z,6.40
2019-02-17T13:08:17.542Z,6.30
2019-02-17T13:10:48.067Z,6.40
2019-02-17T13:13:18.467Z,6.50
2019-02-17T13:15:48.878Z,6.50
2019-02-17T13:18:19.407Z,6.50
2019-02-17T13:20:50.639Z,6.60
2019-02-17T13:23:20.991Z,6.60
2019-02-17T13:25:51.419Z,6.70
2019-02-17T13:28:21.712Z,6.50
2019-02-17T13:30:53.716Z,6.50
2019-02-17T13:33:24.358Z,6.60
2019-02-17T13:35:54.799Z,6.50
2019-02-17T13:38:25.143Z,6.50
2019-02-17T13:40:55.499Z,6.60
2019-02-17T13:43:26.042Z,6.70
2019-02-17T13:45:56.394Z,6.70
2019-02-17T13:48:26.919Z,6.80
2019-02-17T13:50:57.299Z,6.80
2019-02-17T13:53:27.651Z,6.60
2019-02-17T13:55:57.972Z,6.50
2019-02-17T13:58:28.308Z,6.40
2019-02-17T14:00:58.638Z,6.40
2019-02-17T14:03:32.467Z,6.40
2019-02-17T14:06:02.984Z,6.30
2019-02-17T14:08:34.377Z,6.30
2019-02-17T14:11:04.921Z,6.30
2019-02-17T14:13:35.263Z,6.40
2019-02-17T14:16:05.747Z,6.40
2019-02-17T14:18:42.719Z,6.50
2019-02-17T14:21:13.049Z,6.40
2019-02-17T14:23:43.539Z,6.60
2019-02-17T14:26:13.911Z,6.70
2019-02-17T14:28:44.350Z,6.70
2019-02-17T14:31:14.726Z,6.70
2019-02-17T14:33:45.251Z,6.90
2019-02-17T14:36:15.607Z,6.90
2019-02-17T14:38:46.026Z,6.90
2019-02-17T14:41:16.401Z,7.00
2019-02-17T14:43:46.683Z,7.10
2019-02-17T14:46:17.136Z,7.20
2019-02-17T14:48:47.611Z,7.00
2019-02-17T14:51:17.981Z,7.00
2019-02-17T14:53:48.335Z,7.10
2019-02-17T14:56:19.153Z,6.90
2019-02-17T14:58:49.735Z,6.80
2019-02-17T15:01:20.339Z,6.80
2019-02-17T15:03:51.905Z,6.90
2019-02-17T15:06:22.424Z,6.80
2019-02-17T15:08:56.062Z,6.80
2019-02-17T15:11:26.457Z,6.70
2019-02-17T15:13:56.842Z,6.70
2019-02-17T15:16:27.509Z,6.70
2019-02-17T15:18:58.374Z,6.70
2019-02-17T15:21:29.103Z,6.70
2019-02-17T15:23:59.667Z,6.70
2019-02-17T15:26:30.775Z,6.80
2019-02-17T15:29:01.155Z,6.80
2019-02-17T15:31:31.620Z,6.80
2019-02-17T15:34:02.363Z,6.80
2019-02-17T15:36:32.916Z,6.60
2019-02-17T15:39:05.920Z,6.60
2019-02-17T15:41:36.399Z,6.50
2019-02-17T15:44:06.995Z,6.50
2019-02-17T15:46:37.395Z,6.40
2019-02-17T15:49:08.005Z,6.40
2019-02-17T15:51:38.575Z,6.30
2019-02-17T15:54:09.767Z,6.20
2019-02-17T15:56:40.259Z,6.20
2019-02-17T15:59:11.176Z,6.20
2019-02-17T16:01:41.601Z,6.10
2019-02-17T16:04:12.899Z,6.00
2019-02-17T16:06:43.294Z,6.00
2019-02-17T16:09:16.895Z,6.00
2019-02-17T16:11:47.375Z,6.00
2019-02-17T16:14:17.987Z,5.90
2019-02-17T16:16:51.488Z,5.90
2019-02-17T16:19:22.195Z,5.80
2019-02-17T16:21:52.595Z,5.90
2019-02-17T16:24:23.261Z,5.90
2019-02-17T16:26:53.608Z,5.90
2019-02-17T16:29:23.916Z,5.80
2019-02-17T16:31:54.591Z,5.80
2019-02-17T16:34:25.291Z,5.80
2019-02-17T16:36:55.828Z,5.80
2019-02-17T16:39:26.815Z,5.80
2019-02-17T16:41:57.435Z,5.90
2019-02-17T16:44:27.804Z,5.90
2019-02-17T16:46:58.276Z,5.90
2019-02-17T16:49:28.881Z,5.90
2019-02-17T16:51:59.436Z,5.90
2019-02-17T16:54:29.795Z,5.90
2019-02-17T16:57:00.351Z,6.00
2019-02-17T16:59:30.808Z,6.00
2019-02-17T17:02:01.491Z,6.00
2019-02-17T17:04:32.230Z,6.00
2019-02-17T17:07:03.948Z,6.00
2019-02-17T17:09:34.427Z,6.00
2019-02-17T17:12:05.490Z,6.00
2019-02-17T17:14:35.770Z,6.00
2019-02-17T17:17:06.521Z,5.90
2019-02-17T17:19:40.142Z,6.00
2019-02-17T17:22:10.718Z,6.00
2019-02-17T17:24:41.159Z,6.10
2019-02-17T17:27:11.994Z,6.10
2019-02-17T17:29:42.360Z,6.00
2019-02-17T17:32:13.211Z,6.00
2019-02-17T17:34:44.063Z,6.00
2019-02-17T17:37:16.107Z,6.00
2019-02-17T17:39:46.598Z,6.00
2019-02-17T17:42:17.743Z,5.90
2019-02-17T17:44:48.236Z,6.00
2019-02-17T17:47:19.264Z,6.00
2019-02-17T17:49:49.867Z,6.10
2019-02-17T17:52:20.495Z,6.00
2019-02-17T17:54:50.862Z,6.10
2019-02-17T17:57:21.443Z,6.00
2019-02-17T17:59:51.831Z,6.00
2019-02-17T18:02:22.596Z,6.00
2019-02-17T18:04:53.279Z,6.00
2019-02-17T18:07:23.791Z,6.00
2019-02-17T18:09:54.218Z,6.00
2019-02-17T18:12:24.524Z,6.00
2019-02-17T18:14:55.053Z,5.90
2019-02-17T18:17:25.543Z,5.90
2019-02-17T18:19:56.545Z,6.00
2019-02-17T18:22:27.030Z,5.90
2019-02-17T18:24:57.735Z,6.00
2019-02-17T18:27:28.228Z,6.00
2019-02-17T18:29:59.127Z,6.00
2019-02-17T18:32:29.587Z,6.00
2019-02-17T18:35:03.407Z,6.00
2019-02-17T18:37:33.997Z,6.00
2019-02-17T18:40:05.085Z,6.10
2019-02-17T18:42:35.518Z,6.10
2019-02-17T18:45:06.709Z,6.00
2019-02-17T18:47:38.291Z,6.00
2019-02-17T18:50:11.251Z,6.10
2019-02-17T18:52:42.395Z,6.10
2019-02-17T18:55:14.175Z,6.10
2019-02-17T18:57:50.665Z,6.10
2019-02-17T19:00:19.844Z,6.20
2019-02-17T19:02:50.418Z,6.30
2019-02-17T19:05:31.931Z,6.30
2019-02-17T19:07:58.606Z,6.30
2019-02-17T19:10:35.456Z,6.30
2019-02-17T19:13:06.772Z,6.30
2019-02-17T19:15:37.411Z,6.30
2019-02-17T19:18:13.314Z,6.40
2019-02-17T19:20:44.032Z,6.50
2019-02-17T19:23:15.158Z,6.50
2019-02-17T19:25:45.555Z,6.50
2019-02-17T19:28:15.915Z,6.50
2019-02-17T19:30:48.893Z,6.60
2019-02-17T19:33:19.766Z,6.50
2019-02-17T19:35:50.512Z,6.60
2019-02-17T19:38:24.471Z,6.50
2019-02-17T19:40:54.939Z,6.50
2019-02-17T19:43:25.468Z,6.60
2019-02-17T19:45:55.981Z,6.50
2019-02-17T19:48:26.635Z,6.50
2019-02-17T19:50:58.555Z,6.50
2019-02-17T19:53:29.124Z,6.50
2019-02-17T19:55:59.890Z,6.50
2019-02-17T19:58:30.419Z,6.50
2019-02-17T20:01:02.112Z,6.40
2019-02-17T20:03:51.023Z,6.50
2019-02-17T20:06:25.888Z,6.50
2019-02-17T20:08:56.663Z,6.50
2019-02-17T20:11:28.879Z,6.50
2019-02-17T20:13:59.496Z,6.50
2019-02-17T20:16:29.858Z,6.50
2019-02-17T20:19:00.703Z,6.50
2019-02-17T20:21:31.535Z,6.50
2019-02-17T20:24:08.188Z,6.50
2019-02-17T20:26:38.651Z,6.50
2019-02-17T20:29:09.159Z,6.50
2019-02-17T20:31:42.228Z,6.40
2019-02-17T20:34:16.167Z,6.40
2019-02-17T20:36:46.680Z,6.40
2019-02-17T20:39:17.382Z,6.40
2019-02-17T20:41:48.047Z,6.40
2019-02-17T20:44:18.575Z,6.40
2019-02-17T20:46:49.191Z,6.40
2019-02-17T20:49:20.100Z,6.40
2019-02-17T20:51:51.084Z,6.40
2019-02-17T20:54:23.179Z,6.40
2019-02-17T20:56:53.583Z,6.40
2019-02-17T20:59:24.515Z,6.40
2019-02-17T21:01:55.064Z,6.50
2019-02-17T21:04:25.671Z,6.50
2019-02-17T21:06:56.412Z,6.50
2019-02-17T21:09:27.091Z,6.60
2019-02-17T21:12:02.654Z,6.50
2019-02-17T21:14:33.398Z,6.50
2019-02-17T21:17:04.852Z,6.60
2019-02-17T21:19:35.512Z,6.50
2019-02-17T21:22:06.256Z,6.60
2019-02-17T21:24:37.036Z,6.60
2019-02-17T21:27:07.536Z,6.60
2019-02-17T21:29:44.364Z,6.60
2019-02-17T21:32:17.651Z,6.60
2019-02-17T21:34:48.374Z,6.60
2019-02-17T21:37:18.795Z,6.60
2019-02-17T21:39:51.346Z,6.70
2019-02-17T21:42:23.167Z,6.70
2019-02-17T21:44:57.854Z,6.70
2019-02-17T21:47:28.314Z,6.80
2019-02-17T21:50:03.406Z,6.70
2019-02-17T21:52:34.085Z,6.70
2019-02-17T21:55:05.931Z,6.70
2019-02-17T21:57:36.563Z,6.70
2019-02-17T22:00:11.476Z,6.80
2019-02-17T22:02:42.057Z,6.80
2019-02-17T22:05:13.776Z,6.80
2019-02-17T22:07:44.181Z,6.80
2019-02-17T22:10:15.496Z,6.80
2019-02-17T22:12:51.162Z,6.90
2019-02-17T22:15:21.791Z,6.90
2019-02-17T22:17:52.059Z,6.90
2019-02-17T22:20:25.823Z,6.90
2019-02-17T22:22:56.655Z,6.90
2019-02-17T22:25:29.961Z,6.90
2019-02-17T22:28:00.351Z,7.00
2019-02-17T22:30:33.352Z,7.00
2019-02-17T22:33:03.791Z,7.10
2019-02-17T22:35:34.384Z,7.10
2019-02-17T22:38:04.946Z,7.00
2019-02-17T22:40:35.743Z,7.10
2019-02-17T22:43:06.435Z,7.10
2019-02-17T22:45:37.017Z,7.10
2019-02-17T22:48:07.379Z,7.10
2019-02-17T22:50:38.035Z,7.00
2019-02-17T22:53:08.675Z,7.00
2019-02-17T22:55:39.379Z,7.00
2019-02-17T22:58:09.993Z,6.90
2019-02-17T23:00:57.159Z,6.90
2019-02-17T23:03:30.105Z,6.90
2019-02-17T23:06:00.799Z,6.90
2019-02-17T23:08:31.150Z,6.90
2019-02-17T23:11:02.739Z,6.90
2019-02-17T23:13:33.418Z,6.90
2019-02-17T23:16:06.311Z,6.90
2019-02-17T23:18:36.655Z,7.00
2019-02-17T23:21:07.663Z,7.00
2019-02-17T23:23:38.335Z,7.00
2019-02-17T23:26:08.943Z,7.00
2019-02-17T23:28:39.460Z,7.10
2019-02-17T23:31:11.171Z,7.00
2019-02-17T23:33:41.816Z,7.00
2019-02-17T23:36:12.603Z,7.00
2019-02-17T23:38:43.266Z,6.90
2019-02-17T23:41:13.726Z,6.90
2019-02-17T23:43:44.067Z,7.00
2019-02-17T23:46:14.671Z,7.00
2019-02-17T23:48:45.017Z,7.10
2019-02-17T23:51:15.513Z,7.10
2019-02-17T23:53:46.340Z,7.20
2019-02-17T23:56:16.995Z,7.10
2019-02-17T23:58:47.424Z,7.20
